Time;durP1;ratioP1;P1;durP2;ratioP2;P2;SDS_P1;SDS_P2;PMS_P1;PMS_P2;Temp;Humidity;BMP_temperature;BMP_pressure;BME280_temperature;BME280_humidity;BME280_pressure;Samples;Min_cycle;Max_cycle;Signal;HPM_P1;HPM_P2
2021/04/29 00:01:21;;;;;;;18.65;10.63;;;12.70;67.80;;;;;;5073102;28;20312;-73
2021/04/29 00:03:47;;;;;;;17.98;10.13;;;12.70;67.80;;;;;;5071770;28;20221;-74
2021/04/29 00:06:14;;;;;;;16.90;10.02;;;12.70;67.80;;;;;;5075245;28;22424;-73
2021/04/29 00:08:40;;;;;;;17.75;10.20;;;12.70;68.10;;;;;;5074844;28;20224;-73
2021/04/29 00:11:08;;;;;;;18.63;10.43;;;12.70;68.50;;;;;;5069057;28;20203;-74
2021/04/29 00:13:36;;;;;;;23.42;10.93;;;12.70;69.40;;;;;;5070102;28;20194;-74
2021/04/29 00:16:03;;;;;;;20.63;10.85;;;12.70;70.30;;;;;;5075814;28;20206;-73
2021/04/29 00:18:30;;;;;;;20.75;11.20;;;12.70;71.10;;;;;;5069136;28;20202;-73
2021/04/29 00:20:57;;;;;;;18.50;11.63;;;12.70;71.80;;;;;;5069578;28;20198;-71
2021/04/29 00:23:24;;;;;;;20.73;11.30;;;12.70;72.60;;;;;;5069388;28;20305;-73
2021/04/29 00:25:50;;;;;;;22.52;12.02;;;12.70;73.40;;;;;;5070033;28;20255;-72
2021/04/29 00:28:17;;;;;;;24.13;11.90;;;12.60;74.00;;;;;;5068008;28;20198;-72
2021/04/29 00:30:44;;;;;;;25.63;12.27;;;12.70;74.90;;;;;;5075506;28;20281;-73
2021/04/29 00:33:11;;;;;;;22.48;12.85;;;12.70;75.60;;;;;;5077029;28;20221;-74
2021/04/29 00:35:37;;;;;;;23.05;12.93;;;12.70;75.90;;;;;;5072449;28;20202;-73
2021/04/29 00:38:03;;;;;;;23.17;13.20;;;12.70;76.40;;;;;;5069757;28;20195;-72
2021/04/29 00:40:30;;;;;;;19.58;12.60;;;12.70;77.10;;;;;;5075782;28;20197;-73
2021/04/29 00:42:56;;;;;;;20.15;12.82;;;12.60;77.70;;;;;;5068821;28;20260;-73
2021/04/29 00:45:23;;;;;;;25.88;12.85;;;12.60;78.40;;;;;;5070740;28;20237;-73
2021/04/29 00:47:51;;;;;;;20.45;13.07;;;12.50;78.70;;;;;;5067683;28;20211;-74
2021/04/29 00:50:21;;;;;;;24.75;14.07;;;12.50;79.20;;;;;;5073620;28;20206;-73
2021/04/29 00:52:48;;;;;;;26.48;14.35;;;12.50;79.50;;;;;;5072467;28;20666;-73
2021/04/29 00:55:14;;;;;;;23.75;13.35;;;12.50;79.80;;;;;;5071533;28;20688;-74
2021/04/29 00:57:41;;;;;;;21.50;13.73;;;12.40;80.20;;;;;;5068528;28;20206;-73
2021/04/29 01:00:10;;;;;;;21.50;13.57;;;12.40;80.50;;;;;;5069136;28;20206;-73
2021/04/29 01:02:38;;;;;;;25.30;13.52;;;12.30;80.70;;;;;;5067553;28;20936;-73
2021/04/29 01:05:11;;;;;;;22.17;13.77;;;12.30;80.90;;;;;;5074825;28;20213;-73
2021/04/29 01:07:41;;;;;;;25.90;13.98;;;12.20;82.20;;;;;;5068168;28;20198;-73
2021/04/29 01:10:12;;;;;;;24.63;12.95;;;12.20;81.80;;;;;;5068389;28;20606;-74
2021/04/29 01:12:44;;;;;;;20.23;13.35;;;12.20;82.10;;;;;;5069439;28;20274;-73
2021/04/29 01:15:12;;;;;;;22.23;13.07;;;12.20;82.40;;;;;;5069560;28;20257;-73
2021/04/29 01:17:41;;;;;;;24.05;14.00;;;12.20;82.50;;;;;;5073041;28;20202;-73
2021/04/29 01:20:13;;;;;;;23.20;13.98;;;12.20;82.60;;;;;;5069558;28;20212;-74
2021/04/29 01:22:44;;;;;;;26.23;12.95;;;12.20;82.60;;;;;;5070980;28;20226;-72
2021/04/29 01:25:15;;;;;;;21.40;13.32;;;12.20;82.80;;;;;;5079109;28;20206;-73
2021/04/29 01:27:44;;;;;;;23.35;13.15;;;12.20;82.90;;;;;;5073412;28;20202;-73
2021/04/29 01:30:12;;;;;;;25.67;14.20;;;12.30;84.00;;;;;;5070506;28;20655;-73
2021/04/29 01:32:40;;;;;;;19.23;12.40;;;12.30;83.30;;;;;;5073114;28;20256;-72
2021/04/29 01:35:10;;;;;;;25.60;12.90;;;12.30;83.30;;;;;;5068335;28;20209;-73
2021/04/29 01:37:37;;;;;;;27.65;13.65;;;12.30;83.10;;;;;;5070399;28;20543;-73
2021/04/29 01:40:06;;;;;;;27.90;13.70;;;12.20;83.20;;;;;;5070585;28;20198;-73
2021/04/29 01:42:34;;;;;;;21.85;13.50;;;12.20;83.50;;;;;;5068890;28;20209;-73
2021/04/29 01:45:03;;;;;;;21.85;13.32;;;12.20;83.90;;;;;;5077853;28;20217;-73
2021/04/29 01:47:31;;;;;;;21.45;13.68;;;12.20;84.30;;;;;;5068826;28;20213;-73
2021/04/29 01:49:58;;;;;;;27.25;14.75;;;12.20;84.60;;;;;;5068833;28;20289;-73
2021/04/29 01:52:25;;;;;;;25.25;15.05;;;12.20;84.90;;;;;;5075172;28;20202;-72
2021/04/29 01:54:52;;;;;;;25.98;14.75;;;12.20;85.20;;;;;;5071463;28;20206;-73
2021/04/29 01:57:18;;;;;;;25.77;14.07;;;12.20;85.60;;;;;;5063318;28;20222;-73
2021/04/29 01:59:45;;;;;;;20.83;13.60;;;12.20;85.90;;;;;;5070826;28;20210;-73
2021/04/29 02:02:12;;;;;;;27.38;13.90;;;12.20;86.20;;;;;;5077198;28;20222;-72
2021/04/29 02:04:38;;;;;;;26.30;12.85;;;12.20;87.00;;;;;;5067856;28;20263;-73
2021/04/29 02:07:05;;;;;;;23.25;13.80;;;12.20;86.40;;;;;;5068107;28;20210;-74
2021/04/29 02:09:31;;;;;;;26.13;13.05;;;12.10;86.30;;;;;;5068657;28;20213;-73
2021/04/29 02:12:00;;;;;;;24.73;12.90;;;12.10;86.30;;;;;;5075795;28;20248;-72
2021/04/29 02:14:31;;;;;;;21.88;13.73;;;12.10;86.50;;;;;;5069011;28;20194;-74
2021/04/29 02:17:01;;;;;;;24.33;12.20;;;12.10;86.80;;;;;;5066028;28;20746;-72
2021/04/29 02:19:29;;;;;;;26.95;13.85;;;12.10;87.00;;;;;;5066788;28;20715;-72
2021/04/29 02:21:56;;;;;;;29.48;12.95;;;12.10;87.20;;;;;;5070028;28;20202;-72
2021/04/29 02:24:24;;;;;;;23.83;12.70;;;12.10;87.50;;;;;;5070978;28;20612;-72
2021/04/29 02:26:51;;;;;;;29.73;13.00;;;12.00;87.60;;;;;;5071456;28;20211;-73
2021/04/29 02:29:18;;;;;;;22.17;12.93;;;12.00;87.80;;;;;;5072202;28;20213;-73
2021/04/29 02:31:46;;;;;;;26.83;13.50;;;12.00;87.90;;;;;;5076419;28;20263;-73
2021/04/29 02:34:12;;;;;;;25.33;12.85;;;12.00;88.20;;;;;;5074465;28;20190;-72
2021/04/29 02:36:40;;;;;;;24.45;12.93;;;12.00;88.40;;;;;;5071658;28;20210;-73
2021/04/29 02:39:08;;;;;;;25.88;12.98;;;12.00;88.60;;;;;;5076094;28;20209;-72
2021/04/29 02:41:34;;;;;;;26.23;12.63;;;12.00;88.80;;;;;;5071692;28;20202;-72
2021/04/29 02:44:02;;;;;;;25.88;12.80;;;12.00;88.90;;;;;;5072129;28;20219;-73
2021/04/29 02:46:29;;;;;;;22.55;12.48;;;11.90;89.00;;;;;;5071273;28;20206;-73
2021/04/29 02:48:55;;;;;;;23.38;12.52;;;11.90;89.20;;;;;;5068231;28;20662;-74
2021/04/29 02:51:23;;;;;;;25.73;12.80;;;11.90;89.30;;;;;;5077243;28;20191;-73
2021/04/29 02:53:50;;;;;;;23.75;12.20;;;11.90;89.50;;;;;;5072950;28;20650;-74
2021/04/29 02:56:17;;;;;;;21.88;13.07;;;11.90;89.70;;;;;;5076958;28;20615;-72
2021/04/29 02:58:45;;;;;;;21.63;12.52;;;11.90;89.90;;;;;;5074164;28;20198;-72
2021/04/29 03:01:12;;;;;;;23.73;12.73;;;11.90;90.00;;;;;;5075783;28;20698;-73
2021/04/29 03:03:39;;;;;;;24.02;13.52;;;11.90;90.00;;;;;;5072376;28;20256;-73
2021/04/29 03:06:06;;;;;;;29.70;13.38;;;11.90;90.10;;;;;;5072331;28;20285;-73
2021/04/29 03:08:33;;;;;;;25.10;12.75;;;11.90;90.10;;;;;;5072302;28;20213;-73
2021/04/29 03:11:01;;;;;;;21.48;12.40;;;11.90;90.20;;;;;;5070104;28;20633;-72
2021/04/29 03:13:27;;;;;;;22.75;12.77;;;11.90;90.40;;;;;;5072730;28;20211;-73
2021/04/29 03:15:53;;;;;;;32.70;13.40;;;11.90;90.50;;;;;;5070937;28;20253;-72
2021/04/29 03:18:20;;;;;;;29.00;13.80;;;11.90;90.50;;;;;;5068535;28;20563;-75
2021/04/29 03:20:46;;;;;;;28.55;13.93;;;11.80;90.50;;;;;;5078663;28;20575;-74
2021/04/29 03:23:13;;;;;;;25.50;13.90;;;11.90;90.60;;;;;;5071156;28;20217;-73
2021/04/29 03:25:39;;;;;;;27.25;14.30;;;11.90;90.70;;;;;;5069241;28;20213;-74
2021/04/29 03:28:07;;;;;;;25.20;13.82;;;11.90;90.80;;;;;;5070714;28;20580;-73
2021/04/29 03:30:33;;;;;;;23.45;13.85;;;11.80;90.90;;;;;;5075840;28;20835;-73
2021/04/29 03:33:00;;;;;;;22.25;14.13;;;11.80;90.90;;;;;;5074583;28;20291;-73
2021/04/29 03:35:27;;;;;;;24.77;13.77;;;11.80;91.00;;;;;;5069428;28;20225;-73
2021/04/29 03:37:53;;;;;;;26.80;13.57;;;11.80;91.10;;;;;;5068296;28;20223;-74
2021/04/29 03:40:19;;;;;;;25.80;13.93;;;11.70;91.10;;;;;;5068727;28;20236;-73
2021/04/29 03:42:46;;;;;;;26.30;14.65;;;11.70;91.30;;;;;;5067891;28;20237;-72
2021/04/29 03:45:13;;;;;;;26.67;14.00;;;11.70;91.40;;;;;;5075887;28;20213;-72
2021/04/29 03:47:40;;;;;;;25.17;14.52;;;11.60;91.50;;;;;;5066469;28;20222;-73
2021/04/29 03:50:08;;;;;;;27.65;15.38;;;11.60;91.70;;;;;;5078364;28;20195;-74
2021/04/29 03:52:34;;;;;;;26.95;15.13;;;11.50;91.80;;;;;;5067074;28;20219;-73
2021/04/29 03:55:00;;;;;;;32.78;15.75;;;11.50;92.00;;;;;;5051995;28;20206;-73
2021/04/29 03:57:27;;;;;;;27.33;16.08;;;11.50;92.20;;;;;;5068478;28;20244;-73
2021/04/29 03:59:53;;;;;;;29.05;16.55;;;11.40;92.40;;;;;;5074787;28;20197;-73
2021/04/29 04:02:20;;;;;;;34.53;17.02;;;11.40;92.60;;;;;;5072288;28;20227;-72
2021/04/29 04:04:47;;;;;;;40.42;17.52;;;11.40;92.80;;;;;;5076441;28;20226;-74
2021/04/29 04:07:13;;;;;;;42.08;18.15;;;11.30;93.00;;;;;;5072920;28;20669;-73
2021/04/29 04:09:39;;;;;;;34.90;17.33;;;11.20;93.20;;;;;;5072723;28;20210;-73
2021/04/29 04:12:07;;;;;;;35.88;17.77;;;11.20;93.40;;;;;;5071408;28;20195;-74
2021/04/29 04:14:34;;;;;;;35.85;18.30;;;11.20;93.70;;;;;;5076238;28;20198;-74
2021/04/29 04:17:00;;;;;;;40.60;19.40;;;11.10;93.90;;;;;;5067524;28;20208;-75
2021/04/29 04:19:27;;;;;;;46.83;18.55;;;11.00;94.20;;;;;;5070205;28;20723;-74
2021/04/29 04:21:54;;;;;;;39.03;18.25;;;10.90;94.60;;;;;;5066515;28;20195;-74
2021/04/29 04:24:20;;;;;;;44.90;19.27;;;10.90;94.90;;;;;;5082511;28;20222;-73
2021/04/29 04:26:47;;;;;;;36.50;19.70;;;10.80;95.20;;;;;;5069480;28;20206;-73
2021/04/29 04:29:13;;;;;;;34.88;19.50;;;10.70;95.50;;;;;;5069259;28;20210;-73
2021/04/29 04:31:39;;;;;;;35.42;19.17;;;10.70;95.80;;;;;;5069524;28;20206;-75
2021/04/29 04:34:06;;;;;;;35.40;20.20;;;10.60;96.10;;;;;;5071625;28;20210;-72
2021/04/29 04:36:33;;;;;;;43.88;21.50;;;10.60;96.30;;;;;;5070386;28;20256;-74
2021/04/29 04:39:01;;;;;;;36.28;21.15;;;10.60;96.60;;;;;;5070189;28;20209;-74
2021/04/29 04:41:29;;;;;;;46.78;21.90;;;10.50;96.80;;;;;;5070973;28;20293;-75
2021/04/29 04:43:55;;;;;;;43.75;21.63;;;10.50;97.00;;;;;;5075125;28;20221;-74
2021/04/29 04:46:21;;;;;;;32.88;20.92;;;10.50;97.20;;;;;;5068438;28;20213;-74
2021/04/29 04:48:48;;;;;;;51.40;23.58;;;10.50;97.40;;;;;;5071992;28;20213;-74
2021/04/29 04:51:14;;;;;;;46.05;21.58;;;10.40;97.60;;;;;;5070555;28;20217;-73
2021/04/29 04:53:41;;;;;;;47.70;21.77;;;10.40;97.80;;;;;;5064370;28;20203;-74
2021/04/29 04:56:08;;;;;;;45.17;23.05;;;10.40;98.00;;;;;;5071581;28;20207;-74
2021/04/29 04:58:34;;;;;;;46.30;22.08;;;10.40;98.20;;;;;;5069071;28;20210;-75
2021/04/29 05:01:00;;;;;;;37.60;20.75;;;10.40;98.40;;;;;;5070823;28;20233;-74
2021/04/29 05:03:27;;;;;;;36.97;20.10;;;10.30;98.50;;;;;;5068277;28;20222;-74
2021/04/29 05:05:53;;;;;;;36.35;19.92;;;10.30;98.70;;;;;;5076666;28;20217;-74
2021/04/29 05:08:20;;;;;;;39.55;20.55;;;10.30;98.90;;;;;;5072073;28;20205;-73
2021/04/29 05:10:47;;;;;;;39.08;20.02;;;10.20;99.10;;;;;;5075881;28;20236;-78
2021/04/29 05:13:13;;;;;;;33.95;18.35;;;10.20;99.20;;;;;;5069166;28;20230;-75
2021/04/29 05:15:40;;;;;;;42.05;19.38;;;10.20;99.40;;;;;;5078824;28;21193;-74
2021/04/29 05:18:06;;;;;;;32.13;18.58;;;10.20;99.60;;;;;;5074580;28;20197;-74
2021/04/29 05:20:34;;;;;;;32.90;16.58;;;10.20;99.70;;;;;;5071780;28;20217;-74
2021/04/29 05:23:00;;;;;;;39.60;18.13;;;10.10;99.80;;;;;;5075503;28;20232;-74
2021/04/29 05:25:27;;;;;;;37.55;16.95;;;10.10;99.90;;;;;;5076627;28;20186;-74
2021/04/29 05:27:58;;;;;;;32.17;17.95;;;10.10;99.90;;;;;;5071188;28;20199;-75
2021/04/29 05:30:25;;;;;;;32.83;17.83;;;10.10;99.90;;;;;;5072486;28;20194;-74
2021/04/29 05:32:51;;;;;;;31.02;16.98;;;10.00;99.90;;;;;;5064028;28;20224;-74
2021/04/29 05:35:19;;;;;;;33.83;18.27;;;10.00;99.90;;;;;;5075662;28;20547;-73
2021/04/29 05:37:45;;;;;;;29.45;17.52;;;10.00;99.90;;;;;;5078522;28;20277;-74
2021/04/29 05:40:12;;;;;;;34.78;17.33;;;9.90;99.90;;;;;;5072625;28;20561;-73
2021/04/29 05:42:40;;;;;;;38.78;17.40;;;9.90;99.90;;;;;;5078118;28;20209;-74
2021/04/29 05:45:09;;;;;;;31.40;17.85;;;9.90;99.90;;;;;;5071642;28;20252;-75
2021/04/29 05:47:36;;;;;;;30.90;17.60;;;9.90;99.90;;;;;;5078638;28;20213;-75
2021/04/29 05:50:04;;;;;;;29.15;17.05;;;9.90;99.90;;;;;;5085063;28;20194;-74
2021/04/29 05:52:31;;;;;;;31.80;17.45;;;9.80;99.90;;;;;;5073992;28;20259;-75
2021/04/29 05:54:57;;;;;;;29.25;17.17;;;9.90;99.90;;;;;;5083163;28;20202;-75
2021/04/29 05:57:24;;;;;;;28.50;17.75;;;9.80;99.90;;;;;;5076511;28;20203;-74
2021/04/29 05:59:50;;;;;;;28.67;17.27;;;9.80;99.90;;;;;;5080511;28;20553;-74
2021/04/29 06:02:18;;;;;;;35.13;17.27;;;9.80;99.90;;;;;;5073310;28;20230;-74
2021/04/29 06:04:44;;;;;;;30.83;15.88;;;9.80;99.90;;;;;;5089125;28;20278;-74
2021/04/29 06:07:13;;;;;;;29.75;16.80;;;9.80;99.90;;;;;;5080301;28;20251;-74
2021/04/29 06:09:39;;;;;;;28.95;16.40;;;9.80;99.90;;;;;;5068956;28;20729;-74
2021/04/29 06:12:07;;;;;;;29.50;16.65;;;9.80;99.90;;;;;;5074833;28;20298;-74
2021/04/29 06:14:33;;;;;;;25.40;16.02;;;9.80;99.90;;;;;;5073118;28;20564;-74
2021/04/29 06:17:01;;;;;;;26.60;16.48;;;9.80;99.90;;;;;;5073244;28;20671;-74
2021/04/29 06:19:28;;;;;;;31.90;16.58;;;9.80;99.90;;;;;;5079611;28;20202;-74
2021/04/29 06:21:54;;;;;;;26.27;15.93;;;9.80;99.90;;;;;;5086117;28;20201;-74
2021/04/29 06:24:21;;;;;;;27.23;16.48;;;9.80;99.90;;;;;;5085487;28;20206;-74
2021/04/29 06:26:47;;;;;;;27.38;17.38;;;9.80;99.90;;;;;;5077228;28;20210;-74
2021/04/29 06:29:14;;;;;;;29.73;17.52;;;9.80;99.90;;;;;;5076581;28;20252;-74
2021/04/29 06:31:41;;;;;;;31.88;17.35;;;9.80;99.90;;;;;;5087467;28;20662;-74
2021/04/29 06:34:08;;;;;;;29.33;17.20;;;9.80;99.90;;;;;;5078156;28;20247;-73
2021/04/29 06:36:35;;;;;;;32.88;17.90;;;9.80;99.90;;;;;;5075092;28;21975;-74
2021/04/29 06:39:02;;;;;;;31.77;17.08;;;9.80;99.90;;;;;;5074840;28;20221;-77
2021/04/29 06:41:28;;;;;;;30.42;17.52;;;9.80;99.90;;;;;;5067973;28;20729;-75
2021/04/29 06:43:55;;;;;;;28.83;17.33;;;9.70;99.90;;;;;;5073357;28;20585;-74
2021/04/29 06:46:21;;;;;;;29.75;17.48;;;9.80;99.90;;;;;;5079797;28;20198;-73
2021/04/29 06:48:48;;;;;;;26.63;17.48;;;9.80;99.90;;;;;;5079702;28;20680;-73
2021/04/29 06:51:14;;;;;;;30.92;17.60;;;9.70;99.90;;;;;;5070317;28;20210;-73
2021/04/29 06:53:41;;;;;;;27.95;17.27;;;9.70;99.90;;;;;;5080873;28;20613;-73
2021/04/29 06:56:08;;;;;;;26.90;17.05;;;9.70;99.90;;;;;;5068379;28;20332;-74
2021/04/29 06:58:34;;;;;;;27.17;17.20;;;9.70;99.90;;;;;;5074270;28;20210;-73
2021/04/29 07:01:01;;;;;;;25.85;16.52;;;9.70;99.90;;;;;;5072524;28;20237;-75
2021/04/29 07:03:27;;;;;;;26.77;17.35;;;9.70;99.90;;;;;;5070968;28;20202;-73
2021/04/29 07:05:54;;;;;;;24.65;17.30;;;9.70;99.90;;;;;;5074975;28;20754;-73
2021/04/29 07:08:20;;;;;;;26.30;16.92;;;9.60;99.90;;;;;;5067576;28;20229;-74
2021/04/29 07:10:49;;;;;;;27.30;17.23;;;9.60;99.90;;;;;;5067680;28;20213;-73
2021/04/29 07:13:16;;;;;;;25.88;17.27;;;9.60;99.90;;;;;;5068303;28;20279;-73
2021/04/29 07:15:42;;;;;;;28.42;18.83;;;9.50;99.90;;;;;;5068764;28;20220;-72
2021/04/29 07:18:10;;;;;;;29.60;18.23;;;9.60;99.90;;;;;;5090477;28;20588;-74
2021/04/29 07:20:37;;;;;;;24.30;17.35;;;9.60;99.70;;;;;;5092303;28;20193;-75
2021/04/29 07:23:04;;;;;;;24.55;17.45;;;9.50;99.70;;;;;;5082416;28;20195;-74
2021/04/29 07:25:31;;;;;;;28.48;17.73;;;9.50;99.60;;;;;;5073035;28;20203;-73
2021/04/29 07:27:59;;;;;;;31.58;17.60;;;9.50;99.60;;;;;;5071777;28;20210;-73
2021/04/29 07:30:26;;;;;;;27.27;18.35;;;9.40;99.50;;;;;;5073469;28;20251;-74
2021/04/29 07:32:52;;;;;;;29.48;18.65;;;9.40;99.50;;;;;;5079726;28;20193;-73
2021/04/29 07:35:21;;;;;;;27.75;18.40;;;9.30;99.60;;;;;;5063769;28;20217;-74
2021/04/29 07:37:47;;;;;;;29.17;17.30;;;9.30;99.60;;;;;;5068774;28;20197;-73
2021/04/29 07:40:14;;;;;;;27.15;17.08;;;9.20;99.70;;;;;;5070748;28;20203;-74
2021/04/29 07:42:40;;;;;;;29.25;16.73;;;9.20;99.70;;;;;;5071204;28;21700;-75
2021/04/29 07:45:11;;;;;;;26.52;17.33;;;9.10;99.80;;;;;;5069076;28;20210;-72
2021/04/29 07:47:37;;;;;;;26.05;17.10;;;9.10;99.90;;;;;;5066107;28;20217;-74
2021/04/29 07:50:05;;;;;;;26.17;16.88;;;9.00;99.90;;;;;;5073884;28;20259;-73
2021/04/29 07:52:31;;;;;;;27.95;17.45;;;9.00;99.90;;;;;;5075596;28;20263;-73
2021/04/29 07:54:57;;;;;;;30.02;19.67;;;9.00;99.90;;;;;;5070647;28;20202;-73
2021/04/29 07:57:24;;;;;;;29.20;18.42;;;9.00;99.90;;;;;;5069329;28;20658;-73
2021/04/29 07:59:51;;;;;;;25.88;17.85;;;9.00;99.90;;;;;;5071480;28;20625;-74
2021/04/29 08:02:18;;;;;;;24.88;17.67;;;8.90;99.90;;;;;;5076894;28;20313;-73
2021/04/29 08:04:45;;;;;;;29.85;18.25;;;8.90;99.90;;;;;;5070609;28;20900;-73
2021/04/29 08:07:11;;;;;;;29.00;18.23;;;8.90;99.90;;;;;;5068786;28;20225;-73
2021/04/29 08:09:37;;;;;;;29.20;17.88;;;8.90;99.90;;;;;;5071876;28;20198;-73
2021/04/29 08:12:04;;;;;;;28.08;19.38;;;8.90;99.90;;;;;;5075691;28;20202;-73
2021/04/29 08:14:31;;;;;;;27.75;18.67;;;8.90;99.90;;;;;;5079580;28;20190;-74
2021/04/29 08:16:57;;;;;;;29.08;19.00;;;8.80;99.90;;;;;;5072500;28;20441;-73
2021/04/29 08:19:24;;;;;;;27.55;18.83;;;8.80;99.90;;;;;;5069565;28;20212;-72
2021/04/29 08:21:51;;;;;;;30.83;19.13;;;8.90;99.90;;;;;;5072042;28;20199;-73
2021/04/29 08:24:17;;;;;;;31.52;19.85;;;8.90;99.90;;;;;;5069206;28;20219;-72
2021/04/29 08:26:43;;;;;;;28.85;18.58;;;8.90;99.90;;;;;;5076079;28;20206;-73
2021/04/29 08:29:10;;;;;;;36.28;20.27;;;8.80;99.90;;;;;;5072813;28;20248;-75
2021/04/29 08:31:38;;;;;;;31.77;19.67;;;8.80;99.90;;;;;;5073729;28;20208;-74
2021/04/29 08:34:04;;;;;;;30.77;20.35;;;8.80;99.90;;;;;;5071190;28;20254;-74
2021/04/29 08:36:32;;;;;;;29.20;20.20;;;8.90;99.90;;;;;;5069599;28;20198;-74
2021/04/29 08:39:00;;;;;;;29.55;18.98;;;8.90;99.90;;;;;;5074603;28;20563;-74
2021/04/29 08:41:26;;;;;;;32.58;19.95;;;8.90;99.90;;;;;;5068677;28;20228;-74
2021/04/29 08:43:53;;;;;;;37.03;22.60;;;8.90;99.90;;;;;;5070781;28;20218;-73
2021/04/29 08:46:19;;;;;;;28.65;19.60;;;8.90;99.90;;;;;;5071752;28;20251;-73
2021/04/29 08:48:46;;;;;;;30.63;20.38;;;8.90;99.90;;;;;;5070812;28;20549;-73
2021/04/29 08:51:12;;;;;;;31.85;19.52;;;8.90;99.90;;;;;;5075707;28;20564;-72
2021/04/29 08:53:39;;;;;;;30.02;19.70;;;8.90;99.90;;;;;;5073179;28;20202;-74
2021/04/29 08:56:06;;;;;;;27.67;19.42;;;8.90;99.90;;;;;;5069683;28;20209;-75
2021/04/29 08:58:33;;;;;;;30.77;19.02;;;8.90;99.90;;;;;;5067561;28;20264;-72
2021/04/29 09:01:00;;;;;;;31.35;18.73;;;8.90;99.90;;;;;;5072057;28;20230;-73
2021/04/29 09:03:31;;;;;;;29.63;19.30;;;8.90;99.90;;;;;;5067861;28;20217;-74
2021/04/29 09:05:59;;;;;;;28.80;17.98;;;8.80;99.90;;;;;;5071276;28;20205;-73
2021/04/29 09:08:28;;;;;;;31.02;18.98;;;8.80;99.90;;;;;;5070044;28;20215;-72
2021/04/29 09:11:06;;;;;;;32.58;18.58;;;8.80;99.90;;;;;;5070786;28;20202;-72
2021/04/29 09:13:32;;;;;;;27.60;18.05;;;8.80;99.90;;;;;;5066660;28;20202;-72
2021/04/29 09:16:07;;;;;;;31.58;19.30;;;8.80;99.90;;;;;;5071763;28;20286;-73
2021/04/29 09:18:34;;;;;;;29.10;18.27;;;8.80;99.90;;;;;;5070506;28;20302;-73
2021/04/29 09:21:06;;;;;;;27.83;18.30;;;8.80;99.90;;;;;;5068855;28;20206;-74
2021/04/29 09:23:34;;;;;;;31.40;18.10;;;8.80;99.90;;;;;;5069598;28;20206;-74
2021/04/29 09:26:05;;;;;;;26.92;17.70;;;8.80;99.90;;;;;;5069519;28;20210;-73
2021/04/29 09:28:40;;;;;;;33.25;17.75;;;8.80;99.90;;;;;;5072212;28;20313;-72
2021/04/29 09:31:11;;;;;;;30.85;17.10;;;8.80;99.90;;;;;;5076139;28;20209;-72
2021/04/29 09:33:38;;;;;;;29.20;18.05;;;8.80;99.90;;;;;;5069403;28;20728;-72
2021/04/29 09:36:07;;;;;;;27.15;18.08;;;8.80;99.90;;;;;;5073300;28;20202;-74
2021/04/29 09:38:37;;;;;;;29.05;18.25;;;8.80;99.90;;;;;;5071167;28;20217;-73
2021/04/29 09:41:06;;;;;;;30.65;18.92;;;8.80;99.90;;;;;;5068074;28;20206;-72
2021/04/29 09:43:32;;;;;;;30.33;18.48;;;8.80;99.90;;;;;;5067319;28;20211;-73
2021/04/29 09:46:00;;;;;;;28.08;18.60;;;8.80;99.90;;;;;;5070721;28;20202;-74
2021/04/29 09:48:34;;;;;;;30.33;18.67;;;8.80;99.90;;;;;;5070820;28;20271;-74
2021/04/29 09:51:01;;;;;;;30.58;18.83;;;8.90;99.90;;;;;;5071506;28;20220;-73
2021/04/29 09:53:38;;;;;;;28.52;18.65;;;8.90;99.90;;;;;;5069512;28;20191;-73
2021/04/29 09:56:09;;;;;;;33.63;18.02;;;8.90;99.90;;;;;;5066734;28;20225;-73
2021/04/29 09:58:36;;;;;;;31.75;18.73;;;8.90;99.90;;;;;;5065359;28;20250;-72
2021/04/29 10:01:05;;;;;;;27.98;17.85;;;8.90;99.90;;;;;;5068166;28;20249;-72
2021/04/29 10:03:32;;;;;;;33.35;18.13;;;9.00;99.90;;;;;;5068814;28;20229;-73
2021/04/29 10:06:00;;;;;;;30.45;18.52;;;9.00;99.90;;;;;;5071320;28;20206;-75
2021/04/29 10:08:27;;;;;;;28.30;18.17;;;9.00;99.90;;;;;;5071370;28;20206;-73
2021/04/29 10:10:55;;;;;;;29.58;17.05;;;9.00;99.90;;;;;;5067771;28;20571;-74
2021/04/29 10:13:29;;;;;;;31.00;17.55;;;9.00;99.90;;;;;;5072048;28;20202;-72
2021/04/29 10:15:56;;;;;;;24.73;17.17;;;9.00;99.90;;;;;;5066355;28;20290;-73
2021/04/29 10:18:23;;;;;;;23.65;16.05;;;9.00;99.90;;;;;;5073345;28;20570;-73
2021/04/29 10:20:52;;;;;;;25.38;17.05;;;8.90;99.90;;;;;;5070340;28;20226;-72
2021/04/29 10:23:20;;;;;;;31.48;16.67;;;8.90;99.90;;;;;;5065712;28;20544;-74
2021/04/29 10:25:53;;;;;;;27.05;16.67;;;8.90;99.90;;;;;;5074838;28;20208;-73
2021/04/29 10:28:31;;;;;;;24.65;15.98;;;8.80;99.90;;;;;;5070214;28;20261;-72
2021/04/29 10:30:58;;;;;;;27.45;16.58;;;8.80;99.90;;;;;;5071843;28;20193;-73
2021/04/29 10:33:24;;;;;;;29.27;16.30;;;8.80;99.90;;;;;;5067679;28;20202;-73
2021/04/29 10:35:56;;;;;;;29.40;17.20;;;8.80;99.90;;;;;;5072773;28;20738;-74
2021/04/29 10:38:27;;;;;;;31.20;17.45;;;8.80;99.90;;;;;;5066837;28;20226;-75
2021/04/29 10:40:53;;;;;;;24.35;17.00;;;8.80;99.90;;;;;;5071651;28;20610;-73
2021/04/29 10:43:30;;;;;;;30.80;16.17;;;8.80;99.90;;;;;;5073172;28;20217;-73
2021/04/29 10:45:57;;;;;;;27.05;17.23;;;8.80;99.90;;;;;;5070603;28;20257;-74
2021/04/29 10:48:26;;;;;;;30.98;17.88;;;8.80;99.90;;;;;;5067150;28;20663;-74
2021/04/29 10:50:53;;;;;;;27.90;17.30;;;8.90;99.90;;;;;;5071469;28;20625;-72
2021/04/29 10:53:31;;;;;;;28.70;15.70;;;8.90;99.90;;;;;;5071508;28;20210;-75
2021/04/29 10:55:59;;;;;;;25.70;15.13;;;8.90;99.90;;;;;;5077467;28;20201;-72
2021/04/29 10:58:26;;;;;;;25.77;15.18;;;8.90;99.90;;;;;;5069651;28;20205;-73
2021/04/29 11:01:05;;;;;;;31.98;15.27;;;8.90;99.90;;;;;;5073104;28;20690;-73
2021/04/29 11:03:33;;;;;;;28.15;14.77;;;8.90;99.90;;;;;;5073716;28;20709;-73
2021/04/29 11:06:12;;;;;;;29.45;14.93;;;8.90;99.90;;;;;;5073866;28;20685;-74
2021/04/29 11:08:41;;;;;;;25.38;13.80;;;8.90;99.90;;;;;;5068157;28;20210;-74
2021/04/29 11:11:24;;;;;;;24.95;14.73;;;8.90;99.90;;;;;;5070398;28;20209;-72
2021/04/29 11:14:04;;;;;;;26.15;15.05;;;8.90;99.90;;;;;;5076639;28;20557;-73
2021/04/29 11:16:44;;;;;;;28.63;15.15;;;8.90;99.90;;;;;;5073583;28;20656;-73
2021/04/29 11:19:37;;;;;;;27.75;14.55;;;8.90;99.90;;;;;;5078160;28;20219;-73
2021/04/29 11:22:05;;;;;;;27.67;15.05;;;8.90;99.90;;;;;;5074259;28;20194;-73
2021/04/29 11:24:42;;;;;;;25.65;15.18;;;8.90;99.90;;;;;;5070343;28;20606;-73
2021/04/29 11:27:26;;;;;;;24.08;14.20;;;8.90;99.90;;;;;;5077458;28;20221;-73
2021/04/29 11:30:00;;;;;;;29.02;15.60;;;8.90;99.90;;;;;;5075823;28;20719;-74
2021/04/29 11:32:28;;;;;;;29.50;14.27;;;8.90;99.90;;;;;;5072422;28;20995;-74
2021/04/29 11:34:54;;;;;;;25.30;14.00;;;8.90;99.90;;;;;;5079316;28;20187;-74
2021/04/29 11:37:22;;;;;;;28.60;14.20;;;8.90;99.90;;;;;;5073747;28;20602;-74
2021/04/29 11:39:58;;;;;;;22.33;13.57;;;8.90;99.90;;;;;;5079090;28;20201;-74
2021/04/29 11:42:26;;;;;;;27.98;14.45;;;9.00;99.90;;;;;;5072046;28;20210;-72
2021/04/29 11:44:52;;;;;;;24.42;14.52;;;9.00;99.90;;;;;;5075233;28;20222;-74
2021/04/29 11:47:19;;;;;;;25.63;14.23;;;9.00;99.90;;;;;;5069592;28;20206;-74
2021/04/29 11:49:47;;;;;;;32.15;14.80;;;9.00;99.90;;;;;;5074981;28;20198;-74
2021/04/29 11:52:13;;;;;;;26.17;14.38;;;9.10;99.90;;;;;;5069249;28;20211;-74
2021/04/29 11:54:48;;;;;;;27.67;13.85;;;9.00;99.90;;;;;;5070273;28;20194;-73
2021/04/29 11:57:15;;;;;;;25.05;13.13;;;9.10;99.90;;;;;;5074219;28;20205;-75
2021/04/29 11:59:42;;;;;;;29.25;13.68;;;9.10;99.90;;;;;;5073128;28;20194;-74
2021/04/29 12:02:13;;;;;;;24.23;12.13;;;9.10;99.90;;;;;;5070712;28;20230;-74
2021/04/29 12:04:42;;;;;;;28.33;12.93;;;9.10;99.90;;;;;;5074635;28;20229;-75
2021/04/29 12:07:09;;;;;;;28.85;11.98;;;9.00;99.90;;;;;;5069757;28;20205;-74
2021/04/29 12:09:35;;;;;;;30.17;12.50;;;9.00;99.90;;;;;;5079661;28;20545;-74
2021/04/29 12:12:11;;;;;;;30.55;12.63;;;9.00;99.90;;;;;;5069238;28;20536;-73
2021/04/29 12:14:37;;;;;;;24.52;11.38;;;8.90;99.90;;;;;;5071629;28;20243;-74
2021/04/29 12:17:05;;;;;;;23.38;11.80;;;8.90;99.90;;;;;;5068467;28;20213;-75
2021/04/29 12:19:33;;;;;;;23.05;12.20;;;8.90;99.90;;;;;;5081902;28;20202;-71
2021/04/29 12:22:01;;;;;;;29.48;11.82;;;8.90;99.90;;;;;;5072324;28;20225;-73
2021/04/29 12:24:42;;;;;;;23.30;11.77;;;8.90;99.90;;;;;;5076995;28;20228;-74
2021/04/29 12:27:12;;;;;;;24.38;11.30;;;8.90;99.90;;;;;;5068519;28;20210;-75
2021/04/29 12:29:39;;;;;;;26.92;10.65;;;8.90;99.90;;;;;;5070054;28;20203;-74
2021/04/29 12:32:05;;;;;;;19.95;10.77;;;8.90;99.90;;;;;;5069180;28;20206;-73
2021/04/29 12:34:32;;;;;;;18.48;10.90;;;8.90;99.90;;;;;;5076192;28;20195;-73
2021/04/29 12:37:02;;;;;;;21.77;11.80;;;8.90;99.90;;;;;;5067994;28;20222;-73